sensor_id;sensor_type;location;lat;lon;timestamp;pressure;altitude;pressure_sealevel;temperature;humidity
62025;BME280;47978;49.118;12.146;2024-02-23T00:03:10;95318.06;;;8.52;100.00
62025;BME280;47978;49.118;12.146;2024-02-23T00:07:13;95313.47;;;8.44;100.00
62025;BME280;47978;49.118;12.146;2024-02-23T00:11:15;95312.53;;;8.27;100.00
62025;BME280;47978;49.118;12.146;2024-02-23T00:15:17;95325.19;;;8.41;100.00
62025;BME280;47978;49.118;12.146;2024-02-23T00:19:18;95337.53;;;8.22;100.00
62025;BME280;47978;49.118;12.146;2024-02-23T00:23:21;95338.16;;;8.40;100.00
62025;BME280;47978;49.118;12.146;2024-02-23T00:27:23;95342.59;;;8.20;100.00
62025;BME280;47978;49.118;12.146;2024-02-23T00:31:25;95356.81;;;8.22;100.00
62025;BME280;47978;49.118;12.146;2024-02-23T00:35:26;95348.91;;;8.33;100.00
62025;BME280;47978;49.118;12.146;2024-02-23T00:39:29;95364.28;;;8.34;100.00
62025;BME280;47978;49.118;12.146;2024-02-23T00:43:37;95371.97;;;8.28;100.00
62025;BME280;47978;49.118;12.146;2024-02-23T00:47:39;95373.78;;;8.37;100.00
62025;BME280;47978;49.118;12.146;2024-02-23T00:51:41;95391.13;;;8.37;100.00
62025;BME280;47978;49.118;12.146;2024-02-23T00:55:44;95385.63;;;8.37;100.00
62025;BME280;47978;49.118;12.146;2024-02-23T00:59:45;95394.91;;;8.32;100.00
62025;BME280;47978;49.118;12.146;2024-02-23T01:03:47;95405.13;;;8.32;100.00
62025;BME280;47978;49.118;12.146;2024-02-23T01:07:48;95410.84;;;8.27;100.00
62025;BME280;47978;49.118;12.146;2024-02-23T01:11:51;95411.66;;;8.27;100.00
62025;BME280;47978;49.118;12.146;2024-02-23T01:15:53;95427.03;;;8.28;100.00
62025;BME280;47978;49.118;12.146;2024-02-23T01:19:54;95430.81;;;8.24;100.00
62025;BME280;47978;49.118;12.146;2024-02-23T01:23:56;95438.50;;;8.30;100.00
62025;BME280;47978;49.118;12.146;2024-02-23T01:27:59;95500.84;;;8.02;100.00
62025;BME280;47978;49.118;12.146;2024-02-23T01:32:00;95514.88;;;7.25;100.00
62025;BME280;47978;49.118;12.146;2024-02-23T01:36:02;95508.97;;;6.85;100.00
62025;BME280;47978;49.118;12.146;2024-02-23T01:40:05;95501.94;;;6.75;100.00
62025;BME280;47978;49.118;12.146;2024-02-23T01:44:08;95501.44;;;6.73;100.00
62025;BME280;47978;49.118;12.146;2024-02-23T01:48:11;95503.13;;;6.57;100.00
62025;BME280;47978;49.118;12.146;2024-02-23T01:52:13;95504.66;;;6.37;100.00
62025;BME280;47978;49.118;12.146;2024-02-23T01:56:15;95510.94;;;6.37;100.00
62025;BME280;47978;49.118;12.146;2024-02-23T02:00:19;95522.91;;;6.41;100.00
62025;BME280;47978;49.118;12.146;2024-02-23T02:04:21;95526.66;;;6.28;100.00
62025;BME280;47978;49.118;12.146;2024-02-23T02:08:23;95520.25;;;6.06;100.00
62025;BME280;47978;49.118;12.146;2024-02-23T02:12:27;95522.59;;;6.25;100.00
62025;BME280;47978;49.118;12.146;2024-02-23T02:16:30;95516.84;;;6.10;100.00
62025;BME280;47978;49.118;12.146;2024-02-23T02:20:33;95518.94;;;6.13;100.00
62025;BME280;47978;49.118;12.146;2024-02-23T02:24:35;95517.16;;;5.91;100.00
62025;BME280;47978;49.118;12.146;2024-02-23T02:28:36;95531.22;;;6.06;100.00
62025;BME280;47978;49.118;12.146;2024-02-23T02:32:39;95543.19;;;5.93;100.00
62025;BME280;47978;49.118;12.146;2024-02-23T02:36:41;95547.22;;;5.96;100.00
62025;BME280;47978;49.118;12.146;2024-02-23T02:40:43;95553.81;;;5.95;100.00
62025;BME280;47978;49.118;12.146;2024-02-23T02:44:44;95564.44;;;5.79;100.00
62025;BME280;47978;49.118;12.146;2024-02-23T02:48:47;95571.53;;;5.71;100.00
62025;BME280;47978;49.118;12.146;2024-02-23T02:52:49;95584.94;;;5.73;100.00
62025;BME280;47978;49.118;12.146;2024-02-23T02:56:50;95602.69;;;5.67;100.00
62025;BME280;47978;49.118;12.146;2024-02-23T03:00:52;95609.47;;;5.78;100.00
62025;BME280;47978;49.118;12.146;2024-02-23T03:04:55;95618.16;;;5.80;100.00
62025;BME280;47978;49.118;12.146;2024-02-23T03:08:57;95630.25;;;5.70;100.00
62025;BME280;47978;49.118;12.146;2024-02-23T03:12:58;95631.56;;;5.73;100.00
62025;BME280;47978;49.118;12.146;2024-02-23T03:17:00;95628.31;;;5.79;100.00
62025;BME280;47978;49.118;12.146;2024-02-23T03:21:03;95637.50;;;5.75;99.85
62025;BME280;47978;49.118;12.146;2024-02-23T03:25:05;95635.91;;;5.74;100.00
62025;BME280;47978;49.118;12.146;2024-02-23T03:29:07;95640.09;;;5.71;100.00
62025;BME280;47978;49.118;12.146;2024-02-23T03:33:09;95642.97;;;5.66;100.00
62025;BME280;47978;49.118;12.146;2024-02-23T03:37:12;95655.22;;;5.60;100.00
62025;BME280;47978;49.118;12.146;2024-02-23T03:41:13;95646.38;;;5.80;100.00
62025;BME280;47978;49.118;12.146;2024-02-23T03:45:15;95652.50;;;5.69;100.00
62025;BME280;47978;49.118;12.146;2024-02-23T03:49:17;95656.88;;;5.61;99.58
62025;BME280;47978;49.118;12.146;2024-02-23T03:53:19;95656.22;;;5.55;100.00
62025;BME280;47978;49.118;12.146;2024-02-23T03:57:21;95655.59;;;5.67;99.63
62025;BME280;47978;49.118;12.146;2024-02-23T04:01:23;95657.53;;;5.67;99.23
62025;BME280;47978;49.118;12.146;2024-02-23T04:05:24;95667.34;;;5.59;98.57
62025;BME280;47978;49.118;12.146;2024-02-23T04:09:27;95671.22;;;5.58;98.00
62025;BME280;47978;49.118;12.146;2024-02-23T04:13:29;95668.91;;;5.51;98.57
62025;BME280;47978;49.118;12.146;2024-02-23T04:17:30;95661.84;;;5.50;98.74
62025;BME280;47978;49.118;12.146;2024-02-23T04:21:32;95663.44;;;5.51;96.82
62025;BME280;47978;49.118;12.146;2024-02-23T04:25:35;95664.84;;;5.40;99.25
62025;BME280;47978;49.118;12.146;2024-02-23T04:29:36;95661.00;;;5.32;99.48
62025;BME280;47978;49.118;12.146;2024-02-23T04:33:38;95660.19;;;5.49;99.23
62025;BME280;47978;49.118;12.146;2024-02-23T04:37:43;95653.09;;;5.39;99.16
62025;BME280;47978;49.118;12.146;2024-02-23T04:41:46;95653.72;;;5.36;100.00
62025;BME280;47978;49.118;12.146;2024-02-23T04:45:47;95660.66;;;5.34;100.00
62025;BME280;47978;49.118;12.146;2024-02-23T04:49:49;95667.03;;;5.21;100.00
62025;BME280;47978;49.118;12.146;2024-02-23T04:53:50;95673.84;;;5.32;100.00
62025;BME280;47978;49.118;12.146;2024-02-23T04:57:53;95674.84;;;5.36;100.00
62025;BME280;47978;49.118;12.146;2024-02-23T05:01:55;95678.38;;;5.28;100.00
62025;BME280;47978;49.118;12.146;2024-02-23T05:05:56;95683.84;;;5.28;100.00
62025;BME280;47978;49.118;12.146;2024-02-23T05:09:58;95683.94;;;5.54;100.00
62025;BME280;47978;49.118;12.146;2024-02-23T05:14:01;95669.94;;;5.64;100.00
62025;BME280;47978;49.118;12.146;2024-02-23T05:18:03;95685.00;;;5.27;100.00
62025;BME280;47978;49.118;12.146;2024-02-23T05:22:04;95684.22;;;5.04;100.00
62025;BME280;47978;49.118;12.146;2024-02-23T05:26:07;95683.06;;;4.96;100.00
62025;BME280;47978;49.118;12.146;2024-02-23T05:30:12;95688.72;;;4.68;100.00
62025;BME280;47978;49.118;12.146;2024-02-23T05:34:13;95678.78;;;4.50;100.00
62025;BME280;47978;49.118;12.146;2024-02-23T05:38:15;95675.25;;;4.81;100.00
62025;BME280;47978;49.118;12.146;2024-02-23T05:42:17;95673.72;;;4.97;100.00
62025;BME280;47978;49.118;12.146;2024-02-23T05:46:20;95665.94;;;4.82;100.00
62025;BME280;47978;49.118;12.146;2024-02-23T05:50:21;95661.84;;;4.70;100.00
62025;BME280;47978;49.118;12.146;2024-02-23T05:54:23;95673.53;;;4.62;100.00
62025;BME280;47978;49.118;12.146;2024-02-23T05:58:25;95685.84;;;4.73;100.00
62025;BME280;47978;49.118;12.146;2024-02-23T06:02:27;95697.03;;;4.86;100.00
62025;BME280;47978;49.118;12.146;2024-02-23T06:06:29;95711.63;;;4.72;100.00
62025;BME280;47978;49.118;12.146;2024-02-23T06:10:31;95723.97;;;4.92;100.00
62025;BME280;47978;49.118;12.146;2024-02-23T06:14:33;95727.97;;;5.17;100.00
62025;BME280;47978;49.118;12.146;2024-02-23T06:18:36;95738.19;;;5.34;100.00
62025;BME280;47978;49.118;12.146;2024-02-23T06:22:38;95745.19;;;5.49;100.00
62025;BME280;47978;49.118;12.146;2024-02-23T06:26:39;95750.03;;;5.44;100.00
62025;BME280;47978;49.118;12.146;2024-02-23T06:30:41;95760.03;;;5.48;100.00
62025;BME280;47978;49.118;12.146;2024-02-23T06:34:44;95752.75;;;5.44;100.00
62025;BME280;47978;49.118;12.146;2024-02-23T06:38:45;95756.28;;;5.35;100.00
62025;BME280;47978;49.118;12.146;2024-02-23T06:42:47;95763.41;;;5.45;100.00
62025;BME280;47978;49.118;12.146;2024-02-23T06:46:48;95776.84;;;5.55;100.00
62025;BME280;47978;49.118;12.146;2024-02-23T06:50:51;95776.97;;;5.50;100.00
62025;BME280;47978;49.118;12.146;2024-02-23T06:54:53;95782.41;;;5.41;100.00
62025;BME280;47978;49.118;12.146;2024-02-23T06:58:55;95782.53;;;5.36;100.00
62025;BME280;47978;49.118;12.146;2024-02-23T07:02:56;95788.75;;;5.19;100.00
62025;BME280;47978;49.118;12.146;2024-02-23T07:06:59;95789.28;;;5.30;100.00
62025;BME280;47978;49.118;12.146;2024-02-23T07:11:01;95779.72;;;5.19;100.00
62025;BME280;47978;49.118;12.146;2024-02-23T07:15:03;95782.53;;;5.36;100.00
62025;BME280;47978;49.118;12.146;2024-02-23T07:19:06;95785.38;;;5.23;100.00
62025;BME280;47978;49.118;12.146;2024-02-23T07:23:10;95782.72;;;5.40;100.00
62025;BME280;47978;49.118;12.146;2024-02-23T07:27:11;95784.19;;;5.46;100.00
62025;BME280;47978;49.118;12.146;2024-02-23T07:31:13;95789.88;;;5.18;100.00
62025;BME280;47978;49.118;12.146;2024-02-23T07:35:15;95786.47;;;5.44;100.00
62025;BME280;47978;49.118;12.146;2024-02-23T07:39:18;95788.66;;;5.73;100.00
62025;BME280;47978;49.118;12.146;2024-02-23T07:43:19;95785.91;;;5.33;100.00
62025;BME280;47978;49.118;12.146;2024-02-23T07:47:21;95787.03;;;5.63;100.00
62025;BME280;47978;49.118;12.146;2024-02-23T07:51:23;95801.13;;;5.88;100.00
62025;BME280;47978;49.118;12.146;2024-02-23T07:55:25;95805.38;;;5.94;100.00
62025;BME280;47978;49.118;12.146;2024-02-23T07:59:27;95812.28;;;5.92;100.00
62025;BME280;47978;49.118;12.146;2024-02-23T08:03:29;95812.88;;;5.80;100.00
62025;BME280;47978;49.118;12.146;2024-02-23T08:07:31;95821.13;;;5.80;100.00
62025;BME280;47978;49.118;12.146;2024-02-23T08:11:34;95818.69;;;5.78;100.00
62025;BME280;47978;49.118;12.146;2024-02-23T08:15:38;95812.72;;;5.76;100.00
62025;BME280;47978;49.118;12.146;2024-02-23T08:19:39;95810.34;;;5.83;100.00
62025;BME280;47978;49.118;12.146;2024-02-23T08:23:44;95815.09;;;5.69;100.00
62025;BME280;47978;49.118;12.146;2024-02-23T08:27:47;95815.94;;;5.70;100.00
62025;BME280;47978;49.118;12.146;2024-02-23T08:31:48;95816.63;;;5.84;100.00
62025;BME280;47978;49.118;12.146;2024-02-23T08:35:50;95810.03;;;5.54;100.00
62025;BME280;47978;49.118;12.146;2024-02-23T08:39:51;95800.69;;;5.55;100.00
62025;BME280;47978;49.118;12.146;2024-02-23T08:43:54;95790.72;;;5.99;100.00
62025;BME280;47978;49.118;12.146;2024-02-23T08:47:56;95789.31;;;6.19;100.00
62025;BME280;47978;49.118;12.146;2024-02-23T08:51:58;95786.94;;;6.43;99.88
62025;BME280;47978;49.118;12.146;2024-02-23T08:55:59;95794.84;;;6.45;98.69
62025;BME280;47978;49.118;12.146;2024-02-23T09:00:03;95803.56;;;6.38;98.07
62025;BME280;47978;49.118;12.146;2024-02-23T09:04:05;95806.63;;;6.37;98.91
62025;BME280;47978;49.118;12.146;2024-02-23T09:08:06;95812.84;;;6.11;99.43
62025;BME280;47978;49.118;12.146;2024-02-23T09:12:08;95820.13;;;6.16;98.93
62025;BME280;47978;49.118;12.146;2024-02-23T09:16:11;95817.69;;;6.05;98.78
62025;BME280;47978;49.118;12.146;2024-02-23T09:20:13;95831.75;;;6.13;97.70
62025;BME280;47978;49.118;12.146;2024-02-23T09:24:14;95843.69;;;6.08;97.57
62025;BME280;47978;49.118;12.146;2024-02-23T09:28:16;95842.22;;;6.02;95.62
62025;BME280;47978;49.118;12.146;2024-02-23T09:32:19;95841.56;;;6.05;94.70
62025;BME280;47978;49.118;12.146;2024-02-23T09:36:21;95854.13;;;5.97;93.97
62025;BME280;47978;49.118;12.146;2024-02-23T09:40:22;95856.69;;;5.94;93.09
62025;BME280;47978;49.118;12.146;2024-02-23T09:44:26;95879.94;;;5.96;92.96
62025;BME280;47978;49.118;12.146;2024-02-23T09:48:34;95876.19;;;5.92;92.43
62025;BME280;47978;49.118;12.146;2024-02-23T09:52:36;95867.38;;;5.95;92.60
62025;BME280;47978;49.118;12.146;2024-02-23T09:56:39;95887.75;;;5.80;92.32
62025;BME280;47978;49.118;12.146;2024-02-23T10:00:41;95888.56;;;6.03;91.25
62025;BME280;47978;49.118;12.146;2024-02-23T10:04:44;95880.66;;;6.11;92.66
62025;BME280;47978;49.118;12.146;2024-02-23T10:08:46;95872.09;;;6.03;91.90
62025;BME280;47978;49.118;12.146;2024-02-23T10:12:47;95870.28;;;5.99;92.63
62025;BME280;47978;49.118;12.146;2024-02-23T10:16:49;95869.47;;;6.47;91.96
62025;BME280;47978;49.118;12.146;2024-02-23T10:20:52;95874.28;;;6.33;89.58
62025;BME280;47978;49.118;12.146;2024-02-23T10:24:54;95873.13;;;6.25;88.21
62025;BME280;47978;49.118;12.146;2024-02-23T10:28:55;95871.16;;;6.17;88.86
62025;BME280;47978;49.118;12.146;2024-02-23T10:32:57;95870.56;;;6.37;88.88
62025;BME280;47978;49.118;12.146;2024-02-23T10:37:02;95872.97;;;6.30;87.78
62025;BME280;47978;49.118;12.146;2024-02-23T10:41:07;95875.63;;;6.61;89.23
62025;BME280;47978;49.118;12.146;2024-02-23T10:45:10;95873.84;;;6.57;88.60
62025;BME280;47978;49.118;12.146;2024-02-23T10:49:14;95875.63;;;6.61;88.55
62025;BME280;47978;49.118;12.146;2024-02-23T10:53:18;95874.94;;;6.38;87.94
62025;BME280;47978;49.118;12.146;2024-02-23T10:57:21;95871.09;;;6.57;87.79
62025;BME280;47978;49.118;12.146;2024-02-23T11:01:24;95869.78;;;6.45;87.57
62025;BME280;47978;49.118;12.146;2024-02-23T11:05:27;95866.78;;;6.16;85.38
62025;BME280;47978;49.118;12.146;2024-02-23T11:09:31;95866.09;;;6.01;86.27
62025;BME280;47978;49.118;12.146;2024-02-23T11:13:34;95851.78;;;6.13;89.84
62025;BME280;47978;49.118;12.146;2024-02-23T11:17:36;95855.91;;;6.68;85.92
62025;BME280;47978;49.118;12.146;2024-02-23T11:21:38;95851.06;;;6.65;85.71
62025;BME280;47978;49.118;12.146;2024-02-23T11:25:41;95858.03;;;6.80;82.96
62025;BME280;47978;49.118;12.146;2024-02-23T11:29:45;95860.78;;;6.71;85.79
62025;BME280;47978;49.118;12.146;2024-02-23T11:33:50;95861.91;;;6.70;83.31
62025;BME280;47978;49.118;12.146;2024-02-23T11:37:53;95851.88;;;6.65;84.66
62025;BME280;47978;49.118;12.146;2024-02-23T11:41:58;95860.44;;;6.55;81.91
62025;BME280;47978;49.118;12.146;2024-02-23T11:45:59;95843.19;;;6.72;81.27
62025;BME280;47978;49.118;12.146;2024-02-23T11:50:01;95851.09;;;6.91;81.93
62025;BME280;47978;49.118;12.146;2024-02-23T11:54:03;95850.44;;;7.11;81.38
62025;BME280;47978;49.118;12.146;2024-02-23T11:58:06;95852.88;;;7.13;82.21
62025;BME280;47978;49.118;12.146;2024-02-23T12:02:18;95834.44;;;7.05;79.98
62025;BME280;47978;49.118;12.146;2024-02-23T12:06:19;95837.34;;;6.99;81.42
62025;BME280;47978;49.118;12.146;2024-02-23T12:10:21;95841.06;;;7.04;82.24
62025;BME280;47978;49.118;12.146;2024-02-23T12:14:25;95842.81;;;7.17;81.27
62025;BME280;47978;49.118;12.146;2024-02-23T12:18:27;95838.81;;;7.23;82.13
62025;BME280;47978;49.118;12.146;2024-02-23T12:22:28;95836.53;;;7.08;81.72
62025;BME280;47978;49.118;12.146;2024-02-23T12:26:30;95835.56;;;7.21;83.15
62025;BME280;47978;49.118;12.146;2024-02-23T12:30:33;95831.81;;;7.43;82.55
62025;BME280;47978;49.118;12.146;2024-02-23T12:34:35;95824.44;;;7.09;84.86
62025;BME280;47978;49.118;12.146;2024-02-23T12:38:37;95821.66;;;7.26;84.65
62025;BME280;47978;49.118;12.146;2024-02-23T12:42:39;95813.88;;;7.19;86.23
62025;BME280;47978;49.118;12.146;2024-02-23T12:46:42;95817.94;;;7.05;86.53
62025;BME280;47978;49.118;12.146;2024-02-23T12:50:44;95828.28;;;6.99;86.71
62025;BME280;47978;49.118;12.146;2024-02-23T12:54:46;95823.41;;;7.31;86.09
62025;BME280;47978;49.118;12.146;2024-02-23T12:58:52;95823.25;;;7.27;86.12
62025;BME280;47978;49.118;12.146;2024-02-23T13:02:55;95841.56;;;7.23;86.88
62025;BME280;47978;49.118;12.146;2024-02-23T13:06:57;95839.78;;;6.84;86.73
62025;BME280;47978;49.118;12.146;2024-02-23T13:10:58;95836.22;;;6.92;87.24
62025;BME280;47978;49.118;12.146;2024-02-23T13:15:00;95820.41;;;6.97;84.69
62025;BME280;47978;49.118;12.146;2024-02-23T13:19:03;95824.41;;;6.83;85.38
62025;BME280;47978;49.118;12.146;2024-02-23T13:23:05;95833.63;;;7.13;85.25
62025;BME280;47978;49.118;12.146;2024-02-23T13:27:07;95832.34;;;7.02;83.93
62025;BME280;47978;49.118;12.146;2024-02-23T13:31:08;95831.84;;;6.99;86.52
62025;BME280;47978;49.118;12.146;2024-02-23T13:35:11;95835.06;;;7.19;83.32
62025;BME280;47978;49.118;12.146;2024-02-23T13:39:13;95825.41;;;6.95;82.50
62025;BME280;47978;49.118;12.146;2024-02-23T13:43:14;95816.34;;;7.12;82.44
62025;BME280;47978;49.118;12.146;2024-02-23T13:47:16;95793.66;;;7.24;81.96
62025;BME280;47978;49.118;12.146;2024-02-23T13:51:19;95780.22;;;7.31;82.65
62025;BME280;47978;49.118;12.146;2024-02-23T13:55:21;95773.00;;;7.18;82.04
62025;BME280;47978;49.118;12.146;2024-02-23T13:59:22;95787.75;;;6.70;81.78
62025;BME280;47978;49.118;12.146;2024-02-23T14:03:24;95811.00;;;6.98;84.46
62025;BME280;47978;49.118;12.146;2024-02-23T14:07:27;95828.16;;;6.95;84.28
62025;BME280;47978;49.118;12.146;2024-02-23T14:11:28;95829.75;;;6.88;80.83
62025;BME280;47978;49.118;12.146;2024-02-23T14:15:31;95831.53;;;6.92;82.49
62025;BME280;47978;49.118;12.146;2024-02-23T14:19:33;95830.72;;;7.09;81.04
62025;BME280;47978;49.118;12.146;2024-02-23T14:23:39;95798.22;;;7.03;81.73
62025;BME280;47978;49.118;12.146;2024-02-23T14:27:40;95789.66;;;7.13;80.68
62025;BME280;47978;49.118;12.146;2024-02-23T14:31:42;95784.97;;;6.96;81.53
62025;BME280;47978;49.118;12.146;2024-02-23T14:35:43;95783.66;;;7.11;81.26
62025;BME280;47978;49.118;12.146;2024-02-23T14:39:46;95774.78;;;7.05;82.84
62025;BME280;47978;49.118;12.146;2024-02-23T14:43:48;95756.88;;;6.82;80.51
62025;BME280;47978;49.118;12.146;2024-02-23T14:47:50;95754.63;;;6.75;82.88
62025;BME280;47978;49.118;12.146;2024-02-23T14:51:51;95767.84;;;6.99;82.27
62025;BME280;47978;49.118;12.146;2024-02-23T14:55:55;95771.25;;;6.87;83.79
62025;BME280;47978;49.118;12.146;2024-02-23T14:59:56;95767.88;;;6.82;84.00
62025;BME280;47978;49.118;12.146;2024-02-23T15:03:58;95805.19;;;6.91;83.49
62025;BME280;47978;49.118;12.146;2024-02-23T15:07:59;95813.25;;;6.96;82.41
62025;BME280;47978;49.118;12.146;2024-02-23T15:12:03;95841.53;;;6.97;83.65
62025;BME280;47978;49.118;12.146;2024-02-23T15:16:05;95862.06;;;6.99;84.05
62025;BME280;47978;49.118;12.146;2024-02-23T15:20:08;95853.19;;;6.94;84.46
62025;BME280;47978;49.118;12.146;2024-02-23T15:24:10;95853.09;;;6.24;89.08
62025;BME280;47978;49.118;12.146;2024-02-23T15:28:12;95851.50;;;6.23;89.55
62025;BME280;47978;49.118;12.146;2024-02-23T15:32:14;95845.41;;;6.44;89.65
62025;BME280;47978;49.118;12.146;2024-02-23T15:36:16;95824.88;;;6.33;89.58
62025;BME280;47978;49.118;12.146;2024-02-23T15:40:18;95807.59;;;6.41;90.32
62025;BME280;47978;49.118;12.146;2024-02-23T15:44:21;95808.53;;;6.27;92.85
62025;BME280;47978;49.118;12.146;2024-02-23T15:48:22;95780.19;;;5.92;96.88
62025;BME280;47978;49.118;12.146;2024-02-23T15:52:24;95784.00;;;5.74;99.42
62025;BME280;47978;49.118;12.146;2024-02-23T15:56:26;95788.63;;;6.04;97.09
62025;BME280;47978;49.118;12.146;2024-02-23T16:00:29;95793.47;;;6.07;94.43
62025;BME280;47978;49.118;12.146;2024-02-23T16:04:30;95813.22;;;6.18;95.30
62025;BME280;47978;49.118;12.146;2024-02-23T16:08:39;95803.88;;;6.37;92.59
62025;BME280;47978;49.118;12.146;2024-02-23T16:12:41;95781.22;;;6.14;92.30
62025;BME280;47978;49.118;12.146;2024-02-23T16:16:44;95778.41;;;5.88;95.29
62025;BME280;47978;49.118;12.146;2024-02-23T16:20:46;95786.84;;;6.08;94.77
62025;BME280;47978;49.118;12.146;2024-02-23T16:24:47;95793.34;;;6.13;95.20
62025;BME280;47978;49.118;12.146;2024-02-23T16:28:49;95805.00;;;5.78;98.34
62025;BME280;47978;49.118;12.146;2024-02-23T16:32:52;95817.88;;;6.09;96.47
62025;BME280;47978;49.118;12.146;2024-02-23T16:36:53;95822.75;;;5.81;89.77
62025;BME280;47978;49.118;12.146;2024-02-23T16:40:55;95805.72;;;5.61;87.22
62025;BME280;47978;49.118;12.146;2024-02-23T16:44:57;95800.34;;;5.48;88.92
62025;BME280;47978;49.118;12.146;2024-02-23T16:49:00;95801.72;;;5.68;89.70
62025;BME280;47978;49.118;12.146;2024-02-23T16:53:02;95811.00;;;5.89;89.76
62025;BME280;47978;49.118;12.146;2024-02-23T16:57:03;95798.84;;;5.73;91.23
62025;BME280;47978;49.118;12.146;2024-02-23T17:01:06;95809.91;;;5.59;93.56
62025;BME280;47978;49.118;12.146;2024-02-23T17:05:09;95801.28;;;5.43;97.81
62025;BME280;47978;49.118;12.146;2024-02-23T17:09:11;95815.00;;;5.21;100.00
62025;BME280;47978;49.118;12.146;2024-02-23T17:13:12;95823.16;;;5.34;95.97
62025;BME280;47978;49.118;12.146;2024-02-23T17:17:14;95814.69;;;5.22;95.23
62025;BME280;47978;49.118;12.146;2024-02-23T17:21:17;95803.06;;;5.16;96.00
62025;BME280;47978;49.118;12.146;2024-02-23T17:25:19;95799.72;;;4.97;99.29
62025;BME280;47978;49.118;12.146;2024-02-23T17:29:20;95780.72;;;5.32;98.05
62025;BME280;47978;49.118;12.146;2024-02-23T17:33:22;95780.59;;;5.37;97.06
62025;BME280;47978;49.118;12.146;2024-02-23T17:37:25;95793.66;;;4.86;100.00
62025;BME280;47978;49.118;12.146;2024-02-23T17:41:26;95793.56;;;4.91;100.00
62025;BME280;47978;49.118;12.146;2024-02-23T17:45:28;95806.38;;;4.82;100.00
62025;BME280;47978;49.118;12.146;2024-02-23T17:49:30;95840.81;;;4.61;100.00
62025;BME280;47978;49.118;12.146;2024-02-23T17:53:33;95855.66;;;4.82;100.00
62025;BME280;47978;49.118;12.146;2024-02-23T17:57:34;95845.09;;;5.12;99.20
62025;BME280;47978;49.118;12.146;2024-02-23T18:01:36;95836.44;;;4.96;92.53
62025;BME280;47978;49.118;12.146;2024-02-23T18:05:38;95812.72;;;5.14;89.98
62025;BME280;47978;49.118;12.146;2024-02-23T18:09:41;95771.56;;;5.05;87.88
62025;BME280;47978;49.118;12.146;2024-02-23T18:13:43;95764.63;;;4.99;82.81
62025;BME280;47978;49.118;12.146;2024-02-23T18:17:44;95780.06;;;4.72;83.91
62025;BME280;47978;49.118;12.146;2024-02-23T18:21:46;95806.56;;;4.86;81.16
62025;BME280;47978;49.118;12.146;2024-02-23T18:25:49;95858.47;;;4.55;87.44
62025;BME280;47978;49.118;12.146;2024-02-23T18:29:50;95845.78;;;4.72;86.35
62025;BME280;47978;49.118;12.146;2024-02-23T18:33:52;95838.31;;;4.87;84.33
62025;BME280;47978;49.118;12.146;2024-02-23T18:37:54;95852.97;;;4.68;87.08
62025;BME280;47978;49.118;12.146;2024-02-23T18:41:57;95848.66;;;4.54;91.45
62025;BME280;47978;49.118;12.146;2024-02-23T18:45:58;95852.28;;;4.63;89.66
62025;BME280;47978;49.118;12.146;2024-02-23T18:50:00;95848.03;;;4.57;92.37
62025;BME280;47978;49.118;12.146;2024-02-23T18:54:02;95845.75;;;4.36;96.43
62025;BME280;47978;49.118;12.146;2024-02-23T18:58:05;95830.88;;;4.28;96.66
62025;BME280;47978;49.118;12.146;2024-02-23T19:02:06;95826.50;;;4.41;97.16
62025;BME280;47978;49.118;12.146;2024-02-23T19:06:08;95824.31;;;4.52;96.91
62025;BME280;47978;49.118;12.146;2024-02-23T19:10:10;95816.25;;;4.47;94.98
62025;BME280;47978;49.118;12.146;2024-02-23T19:14:13;95793.06;;;4.31;97.36
62025;BME280;47978;49.118;12.146;2024-02-23T19:18:14;95784.50;;;4.46;96.02
62025;BME280;47978;49.118;12.146;2024-02-23T19:22:16;95789.47;;;4.08;98.93
62025;BME280;47978;49.118;12.146;2024-02-23T19:26:20;95820.88;;;3.96;100.00
62025;BME280;47978;49.118;12.146;2024-02-23T19:30:23;95818.97;;;3.69;100.00
62025;BME280;47978;49.118;12.146;2024-02-23T19:34:24;95825.94;;;3.48;100.00
62025;BME280;47978;49.118;12.146;2024-02-23T19:38:26;95820.28;;;3.72;100.00
62025;BME280;47978;49.118;12.146;2024-02-23T19:42:28;95812.88;;;3.45;100.00
62025;BME280;47978;49.118;12.146;2024-02-23T19:46:30;95822.09;;;3.76;100.00
62025;BME280;47978;49.118;12.146;2024-02-23T19:50:32;95833.53;;;3.78;100.00
62025;BME280;47978;49.118;12.146;2024-02-23T19:54:34;95837.34;;;3.50;100.00
62025;BME280;47978;49.118;12.146;2024-02-23T19:58:35;95833.75;;;3.68;100.00
62025;BME280;47978;49.118;12.146;2024-02-23T20:02:38;95820.88;;;3.55;100.00
62025;BME280;47978;49.118;12.146;2024-02-23T20:06:40;95834.31;;;3.37;100.00
62025;BME280;47978;49.118;12.146;2024-02-23T20:10:42;95837.97;;;3.60;100.00
62025;BME280;47978;49.118;12.146;2024-02-23T20:14:44;95823.09;;;3.53;100.00
62025;BME280;47978;49.118;12.146;2024-02-23T20:18:47;95814.03;;;3.11;100.00
62025;BME280;47978;49.118;12.146;2024-02-23T20:22:49;95812.75;;;2.89;100.00
62025;BME280;47978;49.118;12.146;2024-02-23T20:26:50;95820.94;;;2.89;100.00
62025;BME280;47978;49.118;12.146;2024-02-23T20:30:52;95810.41;;;3.29;100.00
62025;BME280;47978;49.118;12.146;2024-02-23T20:34:55;95806.03;;;3.14;100.00
62025;BME280;47978;49.118;12.146;2024-02-23T20:39:01;95800.50;;;2.87;100.00
62025;BME280;47978;49.118;12.146;2024-02-23T20:43:03;95820.25;;;2.98;100.00
62025;BME280;47978;49.118;12.146;2024-02-23T20:47:05;95816.53;;;3.07;100.00
62025;BME280;47978;49.118;12.146;2024-02-23T20:51:08;95812.94;;;2.93;100.00
62025;BME280;47978;49.118;12.146;2024-02-23T20:55:09;95804.41;;;3.00;100.00
62025;BME280;47978;49.118;12.146;2024-02-23T20:59:11;95798.63;;;3.01;100.00
62025;BME280;47978;49.118;12.146;2024-02-23T21:03:12;95795.69;;;2.98;100.00
62025;BME280;47978;49.118;12.146;2024-02-23T21:07:15;95799.44;;;2.69;100.00
62025;BME280;47978;49.118;12.146;2024-02-23T21:11:17;95810.00;;;2.38;100.00
62025;BME280;47978;49.118;12.146;2024-02-23T21:15:19;95806.69;;;2.41;100.00